CYVR/YVR METAR and TAF weather

Enter ICAO airport designator
Station Type Date Time Source
CYVR METAR 2019/08/22 03:00 UTC NOAA

CYVR 220300Z 23006KT 15SM FEW009 BKN012 BKN018 BKN022 18/16 A2997 RMK SF1CU5SC1SC1 SF TR SLP151 DENSITY ALT 300FT


Station Type Date Time Source
CYVR Decoded METAR 2019/08/22 03:00 UTC NOAA

Station name not available
Aug 21, 2019 - 11:00 PM EDT / 2019.08.22 0300 UTC
Wind: from the SW (230 degrees) at 7 MPH (6 KT):0
Visibility: 15 mile(s):0
Sky conditions: mostly cloudy
Temperature: 64 F (18 C)
Dew Point: 60 F (16 C)
Relative Humidity: 88%
Pressure (altimeter): 29.97 in. Hg (1014 hPa)
ob: CYVR 220300Z 23006KT 15SM FEW009 BKN012 BKN018 BKN022 18/16 A2997 RMK SF1CU5SC1SC1 SF TR SLP151 DENSITY ALT 300FT
cycle: 3

Station Type Date Time Source
CYVR TAF 2019/08/22 03:39 UTC NOAA

TAF CYVR 220238Z 2203/2306 12005KT P6SM FEW008 SCT015
TEMPO 2203/2209 BKN015
BECMG 2204/2206 26010KT
FM220900 28014KT P6SM FEW006 BKN012
TEMPO 2209/2219 SCT012
FM221900 25008KT P6SM SCT020
FM230100 VRB03KT P6SM FEW060 SCT280
BECMG 2304/2306 08008KT
RMK NXT FCST BY 220600Z

Example: see airport list